sensor_id;sensor_type;location;lat;lon;timestamp;temperature;humidity
66144;SHT31;52947;50.842;6.084;2023-12-20T00:01:22;9.60;94.88
66144;SHT31;52947;50.842;6.084;2023-12-20T00:03:51;9.68;94.64
66144;SHT31;52947;50.842;6.084;2023-12-20T00:06:19;9.36;94.75
66144;SHT31;52947;50.842;6.084;2023-12-20T00:08:47;9.48;94.26
66144;SHT31;52947;50.842;6.084;2023-12-20T00:11:15;9.67;94.49
66144;SHT31;52947;50.842;6.084;2023-12-20T00:13:44;9.60;94.61
66144;SHT31;52947;50.842;6.084;2023-12-20T00:16:17;9.38;94.25
66144;SHT31;52947;50.842;6.084;2023-12-20T00:18:45;9.33;96.47
66144;SHT31;52947;50.842;6.084;2023-12-20T00:21:13;9.77;95.31
66144;SHT31;52947;50.842;6.084;2023-12-20T00:23:42;9.47;95.04
66144;SHT31;52947;50.842;6.084;2023-12-20T00:26:09;9.34;95.53
66144;SHT31;52947;50.842;6.084;2023-12-20T00:28:38;9.41;94.64
66144;SHT31;52947;50.842;6.084;2023-12-20T00:31:07;9.52;93.40
66144;SHT31;52947;50.842;6.084;2023-12-20T00:33:35;9.52;94.51
66144;SHT31;52947;50.842;6.084;2023-12-20T00:36:04;9.17;94.07
66144;SHT31;52947;50.842;6.084;2023-12-20T00:38:32;9.43;95.35
66144;SHT31;52947;50.842;6.084;2023-12-20T00:41:00;9.23;95.01
66144;SHT31;52947;50.842;6.084;2023-12-20T00:43:29;9.30;94.77
66144;SHT31;52947;50.842;6.084;2023-12-20T00:45:57;8.95;94.32
66144;SHT31;52947;50.842;6.084;2023-12-20T00:48:28;9.10;94.03
66144;SHT31;52947;50.842;6.084;2023-12-20T00:50:57;8.95;93.59
66144;SHT31;52947;50.842;6.084;2023-12-20T00:53:25;8.83;93.92
66144;SHT31;52947;50.842;6.084;2023-12-20T00:55:53;8.75;93.25
66144;SHT31;52947;50.842;6.084;2023-12-20T00:58:21;8.78;94.85
66144;SHT31;52947;50.842;6.084;2023-12-20T01:01:06;8.69;93.64
66144;SHT31;52947;50.842;6.084;2023-12-20T01:03:36;8.51;92.88
66144;SHT31;52947;50.842;6.084;2023-12-20T01:06:04;7.86;92.78
66144;SHT31;52947;50.842;6.084;2023-12-20T01:08:32;7.79;94.18
66144;SHT31;52947;50.842;6.084;2023-12-20T01:11:03;7.79;92.72
66144;SHT31;52947;50.842;6.084;2023-12-20T01:13:31;7.46;93.23
66144;SHT31;52947;50.842;6.084;2023-12-20T01:15:59;7.58;93.23
66144;SHT31;52947;50.842;6.084;2023-12-20T01:18:28;7.59;93.40
66144;SHT31;52947;50.842;6.084;2023-12-20T01:21:01;7.83;93.91
66144;SHT31;52947;50.842;6.084;2023-12-20T01:23:29;7.98;94.54
66144;SHT31;52947;50.842;6.084;2023-12-20T01:25:58;7.94;93.06
66144;SHT31;52947;50.842;6.084;2023-12-20T01:28:27;7.83;93.28
66144;SHT31;52947;50.842;6.084;2023-12-20T01:30:55;7.87;93.88
66144;SHT31;52947;50.842;6.084;2023-12-20T01:33:23;7.98;93.64
66144;SHT31;52947;50.842;6.084;2023-12-20T01:35:51;8.25;93.47
66144;SHT31;52947;50.842;6.084;2023-12-20T01:38:20;8.17;93.56
66144;SHT31;52947;50.842;6.084;2023-12-20T01:40:48;8.61;94.97
66144;SHT31;52947;50.842;6.084;2023-12-20T01:43:16;8.55;93.34
66144;SHT31;52947;50.842;6.084;2023-12-20T01:45:45;8.25;91.31
66144;SHT31;52947;50.842;6.084;2023-12-20T01:48:13;8.78;93.07
66144;SHT31;52947;50.842;6.084;2023-12-20T01:50:44;8.54;91.46
66144;SHT31;52947;50.842;6.084;2023-12-20T01:53:13;8.82;92.51
66144;SHT31;52947;50.842;6.084;2023-12-20T01:55:44;8.92;92.19
66144;SHT31;52947;50.842;6.084;2023-12-20T01:58:14;9.13;92.31
66144;SHT31;52947;50.842;6.084;2023-12-20T02:00:42;9.26;92.44
66144;SHT31;52947;50.842;6.084;2023-12-20T02:03:11;8.92;91.64
66144;SHT31;52947;50.842;6.084;2023-12-20T02:05:39;9.10;90.06
66144;SHT31;52947;50.842;6.084;2023-12-20T02:08:08;9.27;91.93
66144;SHT31;52947;50.842;6.084;2023-12-20T02:10:36;8.90;91.48
66144;SHT31;52947;50.842;6.084;2023-12-20T02:13:05;8.79;91.31
66144;SHT31;52947;50.842;6.084;2023-12-20T02:15:33;8.93;90.20
66144;SHT31;52947;50.842;6.084;2023-12-20T02:18:04;8.56;90.59
66144;SHT31;52947;50.842;6.084;2023-12-20T02:20:32;8.61;91.22
66144;SHT31;52947;50.842;6.084;2023-12-20T02:23:01;8.73;92.05
66144;SHT31;52947;50.842;6.084;2023-12-20T02:25:29;8.49;91.49
66144;SHT31;52947;50.842;6.084;2023-12-20T02:27:57;8.00;91.96
66144;SHT31;52947;50.842;6.084;2023-12-20T02:30:25;8.07;93.75
66144;SHT31;52947;50.842;6.084;2023-12-20T02:32:53;7.82;92.56
66144;SHT31;52947;50.842;6.084;2023-12-20T02:35:22;8.10;93.60
66144;SHT31;52947;50.842;6.084;2023-12-20T02:37:50;8.20;91.96
66144;SHT31;52947;50.842;6.084;2023-12-20T02:40:19;7.90;93.15
66144;SHT31;52947;50.842;6.084;2023-12-20T02:42:47;7.96;93.14
66144;SHT31;52947;50.842;6.084;2023-12-20T02:45:15;8.11;92.50
66144;SHT31;52947;50.842;6.084;2023-12-20T02:47:43;8.44;92.24
66144;SHT31;52947;50.842;6.084;2023-12-20T02:50:11;8.49;91.57
66144;SHT31;52947;50.842;6.084;2023-12-20T02:52:40;8.64;91.39
66144;SHT31;52947;50.842;6.084;2023-12-20T02:55:08;8.45;91.05
66144;SHT31;52947;50.842;6.084;2023-12-20T02:57:37;8.41;90.23
66144;SHT31;52947;50.842;6.084;2023-12-20T03:00:09;8.30;92.09
66144;SHT31;52947;50.842;6.084;2023-12-20T03:02:37;8.24;92.58
66144;SHT31;52947;50.842;6.084;2023-12-20T03:05:06;7.80;92.21
66144;SHT31;52947;50.842;6.084;2023-12-20T03:07:36;8.14;92.32
66144;SHT31;52947;50.842;6.084;2023-12-20T03:10:05;8.16;92.32
66144;SHT31;52947;50.842;6.084;2023-12-20T03:12:47;8.34;93.20
66144;SHT31;52947;50.842;6.084;2023-12-20T03:15:15;7.96;90.75
66144;SHT31;52947;50.842;6.084;2023-12-20T03:17:43;7.93;92.81
66144;SHT31;52947;50.842;6.084;2023-12-20T03:20:12;8.00;91.99
66144;SHT31;52947;50.842;6.084;2023-12-20T03:22:40;8.25;92.32
66144;SHT31;52947;50.842;6.084;2023-12-20T03:25:08;8.16;90.93
66144;SHT31;52947;50.842;6.084;2023-12-20T03:27:37;8.48;91.04
66144;SHT31;52947;50.842;6.084;2023-12-20T03:30:08;8.18;92.17
66144;SHT31;52947;50.842;6.084;2023-12-20T03:32:37;7.76;91.91
66144;SHT31;52947;50.842;6.084;2023-12-20T03:35:05;7.91;91.48
66144;SHT31;52947;50.842;6.084;2023-12-20T03:37:34;7.90;91.78
66144;SHT31;52947;50.842;6.084;2023-12-20T03:40:02;7.80;92.50
66144;SHT31;52947;50.842;6.084;2023-12-20T03:42:30;7.16;93.18
66144;SHT31;52947;50.842;6.084;2023-12-20T03:44:58;7.25;93.17
66144;SHT31;52947;50.842;6.084;2023-12-20T03:47:27;7.87;92.95
66144;SHT31;52947;50.842;6.084;2023-12-20T03:49:55;7.70;92.00
66144;SHT31;52947;50.842;6.084;2023-12-20T03:52:23;7.61;92.41
66144;SHT31;52947;50.842;6.084;2023-12-20T03:54:51;7.55;94.44
66144;SHT31;52947;50.842;6.084;2023-12-20T03:57:20;7.62;92.72
66144;SHT31;52947;50.842;6.084;2023-12-20T03:59:48;7.77;93.20
66144;SHT31;52947;50.842;6.084;2023-12-20T04:02:16;7.45;92.29
66144;SHT31;52947;50.842;6.084;2023-12-20T04:04:46;7.70;92.99
66144;SHT31;52947;50.842;6.084;2023-12-20T04:07:14;7.79;92.50
66144;SHT31;52947;50.842;6.084;2023-12-20T04:09:42;7.41;91.15
66144;SHT31;52947;50.842;6.084;2023-12-20T04:12:10;7.09;92.87
66144;SHT31;52947;50.842;6.084;2023-12-20T04:14:38;6.93;93.19
66144;SHT31;52947;50.842;6.084;2023-12-20T04:17:06;7.29;93.75
66144;SHT31;52947;50.842;6.084;2023-12-20T04:19:34;7.48;92.85
66144;SHT31;52947;50.842;6.084;2023-12-20T04:22:04;7.18;92.11
66144;SHT31;52947;50.842;6.084;2023-12-20T04:24:32;7.48;93.75
66144;SHT31;52947;50.842;6.084;2023-12-20T04:27:00;6.91;92.76
66144;SHT31;52947;50.842;6.084;2023-12-20T04:29:28;7.29;93.15
66144;SHT31;52947;50.842;6.084;2023-12-20T04:31:56;7.00;92.99
66144;SHT31;52947;50.842;6.084;2023-12-20T04:34:25;7.18;92.80
66144;SHT31;52947;50.842;6.084;2023-12-20T04:36:53;7.01;92.71
66144;SHT31;52947;50.842;6.084;2023-12-20T04:39:23;7.01;92.85
66144;SHT31;52947;50.842;6.084;2023-12-20T04:41:51;7.02;93.33
66144;SHT31;52947;50.842;6.084;2023-12-20T04:44:19;7.59;92.89
66144;SHT31;52947;50.842;6.084;2023-12-20T04:46:47;7.35;93.10
66144;SHT31;52947;50.842;6.084;2023-12-20T04:49:15;7.15;92.27
66144;SHT31;52947;50.842;6.084;2023-12-20T04:51:43;6.94;92.93
66144;SHT31;52947;50.842;6.084;2023-12-20T04:54:11;7.48;94.14
66144;SHT31;52947;50.842;6.084;2023-12-20T04:56:41;7.32;92.69
66144;SHT31;52947;50.842;6.084;2023-12-20T04:59:09;7.28;93.90
66144;SHT31;52947;50.842;6.084;2023-12-20T05:01:37;7.00;93.35
66144;SHT31;52947;50.842;6.084;2023-12-20T05:04:05;6.87;93.58
66144;SHT31;52947;50.842;6.084;2023-12-20T05:06:34;7.05;94.00
66144;SHT31;52947;50.842;6.084;2023-12-20T05:09:02;6.83;93.66
66144;SHT31;52947;50.842;6.084;2023-12-20T05:11:30;6.88;94.27
66144;SHT31;52947;50.842;6.084;2023-12-20T05:14:00;6.70;94.27
66144;SHT31;52947;50.842;6.084;2023-12-20T05:16:28;7.14;93.92
66144;SHT31;52947;50.842;6.084;2023-12-20T05:18:56;7.08;93.83
66144;SHT31;52947;50.842;6.084;2023-12-20T05:21:25;7.26;94.42
66144;SHT31;52947;50.842;6.084;2023-12-20T05:23:53;7.43;94.07
66144;SHT31;52947;50.842;6.084;2023-12-20T05:26:21;7.38;91.65
66144;SHT31;52947;50.842;6.084;2023-12-20T05:28:49;7.45;93.47
66144;SHT31;52947;50.842;6.084;2023-12-20T05:31:18;7.65;92.52
66144;SHT31;52947;50.842;6.084;2023-12-20T05:33:46;7.39;92.70
66144;SHT31;52947;50.842;6.084;2023-12-20T05:36:14;7.61;93.24
66144;SHT31;52947;50.842;6.084;2023-12-20T05:38:42;7.69;91.96
66144;SHT31;52947;50.842;6.084;2023-12-20T05:41:10;7.56;92.13
66144;SHT31;52947;50.842;6.084;2023-12-20T05:43:38;7.69;91.70
66144;SHT31;52947;50.842;6.084;2023-12-20T05:46:06;7.38;91.67
66144;SHT31;52947;50.842;6.084;2023-12-20T05:48:36;7.72;92.84
66144;SHT31;52947;50.842;6.084;2023-12-20T05:51:04;7.52;92.94
66144;SHT31;52947;50.842;6.084;2023-12-20T05:53:32;7.24;92.33
66144;SHT31;52947;50.842;6.084;2023-12-20T05:56:00;7.19;92.97
66144;SHT31;52947;50.842;6.084;2023-12-20T05:58:28;6.95;92.70
66144;SHT31;52947;50.842;6.084;2023-12-20T06:00:57;7.19;93.13
66144;SHT31;52947;50.842;6.084;2023-12-20T06:03:25;7.05;93.16
66144;SHT31;52947;50.842;6.084;2023-12-20T06:05:54;7.19;93.73
66144;SHT31;52947;50.842;6.084;2023-12-20T06:08:39;7.21;91.62
66144;SHT31;52947;50.842;6.084;2023-12-20T06:11:07;6.98;93.41
66144;SHT31;52947;50.842;6.084;2023-12-20T06:13:35;7.28;92.68
66144;SHT31;52947;50.842;6.084;2023-12-20T06:16:05;7.38;92.62
66144;SHT31;52947;50.842;6.084;2023-12-20T06:18:34;7.04;92.89
66144;SHT31;52947;50.842;6.084;2023-12-20T06:21:05;7.00;93.19
66144;SHT31;52947;50.842;6.084;2023-12-20T06:23:34;6.90;93.29
66144;SHT31;52947;50.842;6.084;2023-12-20T06:26:02;6.95;94.07
66144;SHT31;52947;50.842;6.084;2023-12-20T06:28:47;7.15;93.19
66144;SHT31;52947;50.842;6.084;2023-12-20T06:31:16;6.98;92.79
66144;SHT31;52947;50.842;6.084;2023-12-20T06:33:44;6.88;92.92
66144;SHT31;52947;50.842;6.084;2023-12-20T06:36:13;6.94;92.61
66144;SHT31;52947;50.842;6.084;2023-12-20T06:38:41;6.88;92.58
66144;SHT31;52947;50.842;6.084;2023-12-20T06:41:13;6.52;93.77
66144;SHT31;52947;50.842;6.084;2023-12-20T06:43:41;6.80;92.73
66144;SHT31;52947;50.842;6.084;2023-12-20T06:46:16;6.60;92.64
66144;SHT31;52947;50.842;6.084;2023-12-20T06:48:44;6.54;93.90
66144;SHT31;52947;50.842;6.084;2023-12-20T06:51:14;6.71;93.49
66144;SHT31;52947;50.842;6.084;2023-12-20T06:53:43;7.18;93.06
66144;SHT31;52947;50.842;6.084;2023-12-20T06:56:11;6.95;91.83
66144;SHT31;52947;50.842;6.084;2023-12-20T06:58:44;6.77;92.48
66144;SHT31;52947;50.842;6.084;2023-12-20T07:01:12;6.73;92.80
66144;SHT31;52947;50.842;6.084;2023-12-20T07:03:40;7.08;92.72
66144;SHT31;52947;50.842;6.084;2023-12-20T07:06:08;6.62;91.97
66144;SHT31;52947;50.842;6.084;2023-12-20T07:08:40;6.77;92.73
66144;SHT31;52947;50.842;6.084;2023-12-20T07:11:08;6.62;92.75
66144;SHT31;52947;50.842;6.084;2023-12-20T07:13:36;6.52;92.78
66144;SHT31;52947;50.842;6.084;2023-12-20T07:16:04;6.71;92.76
66144;SHT31;52947;50.842;6.084;2023-12-20T07:18:33;6.60;92.38
66144;SHT31;52947;50.842;6.084;2023-12-20T07:21:01;6.63;92.27
66144;SHT31;52947;50.842;6.084;2023-12-20T07:23:29;6.54;92.79
66144;SHT31;52947;50.842;6.084;2023-12-20T07:25:58;6.36;93.29
66144;SHT31;52947;50.842;6.084;2023-12-20T07:28:26;6.44;94.07
66144;SHT31;52947;50.842;6.084;2023-12-20T07:30:54;6.34;93.29
66144;SHT31;52947;50.842;6.084;2023-12-20T07:33:23;6.28;94.06
66144;SHT31;52947;50.842;6.084;2023-12-20T07:35:51;6.25;94.15
66144;SHT31;52947;50.842;6.084;2023-12-20T07:38:19;6.19;93.83
66144;SHT31;52947;50.842;6.084;2023-12-20T07:40:47;6.13;94.12
66144;SHT31;52947;50.842;6.084;2023-12-20T07:43:17;6.22;93.84
66144;SHT31;52947;50.842;6.084;2023-12-20T07:45:45;6.28;94.05
66144;SHT31;52947;50.842;6.084;2023-12-20T07:48:13;6.21;93.41
66144;SHT31;52947;50.842;6.084;2023-12-20T07:50:41;6.26;94.99
66144;SHT31;52947;50.842;6.084;2023-12-20T07:53:09;6.32;94.85
66144;SHT31;52947;50.842;6.084;2023-12-20T07:55:37;6.34;94.63
66144;SHT31;52947;50.842;6.084;2023-12-20T07:58:05;6.73;95.60
66144;SHT31;52947;50.842;6.084;2023-12-20T08:00:34;6.76;96.09
66144;SHT31;52947;50.842;6.084;2023-12-20T08:03:02;6.21;94.02
66144;SHT31;52947;50.842;6.084;2023-12-20T08:05:31;5.81;94.38
66144;SHT31;52947;50.842;6.084;2023-12-20T08:07:59;5.68;94.75
66144;SHT31;52947;50.842;6.084;2023-12-20T08:10:27;5.68;95.14
66144;SHT31;52947;50.842;6.084;2023-12-20T08:12:56;5.58;95.33
66144;SHT31;52947;50.842;6.084;2023-12-20T08:15:24;5.39;95.31
66144;SHT31;52947;50.842;6.084;2023-12-20T08:17:54;5.33;95.54
66144;SHT31;52947;50.842;6.084;2023-12-20T08:20:22;5.41;95.73
66144;SHT31;52947;50.842;6.084;2023-12-20T08:23:05;5.48;95.75
66144;SHT31;52947;50.842;6.084;2023-12-20T08:25:33;5.65;95.58
66144;SHT31;52947;50.842;6.084;2023-12-20T08:28:02;6.13;94.70
66144;SHT31;52947;50.842;6.084;2023-12-20T08:30:31;6.09;93.56
66144;SHT31;52947;50.842;6.084;2023-12-20T08:33:01;6.18;94.74
66144;SHT31;52947;50.842;6.084;2023-12-20T08:35:29;6.36;95.07
66144;SHT31;52947;50.842;6.084;2023-12-20T08:37:57;5.89;93.81
66144;SHT31;52947;50.842;6.084;2023-12-20T08:40:27;5.71;94.86
66144;SHT31;52947;50.842;6.084;2023-12-20T08:42:55;5.62;95.13
66144;SHT31;52947;50.842;6.084;2023-12-20T08:45:23;5.58;95.39
66144;SHT31;52947;50.842;6.084;2023-12-20T08:47:51;5.57;95.42
66144;SHT31;52947;50.842;6.084;2023-12-20T08:50:21;5.62;95.37
66144;SHT31;52947;50.842;6.084;2023-12-20T08:52:49;5.60;95.07
66144;SHT31;52947;50.842;6.084;2023-12-20T08:55:17;5.61;95.17
66144;SHT31;52947;50.842;6.084;2023-12-20T08:57:45;5.65;95.04
66144;SHT31;52947;50.842;6.084;2023-12-20T09:00:14;5.71;95.01
66144;SHT31;52947;50.842;6.084;2023-12-20T09:02:42;5.70;94.89
66144;SHT31;52947;50.842;6.084;2023-12-20T09:05:11;5.67;95.19
66144;SHT31;52947;50.842;6.084;2023-12-20T09:07:40;5.65;95.20
66144;SHT31;52947;50.842;6.084;2023-12-20T09:10:08;5.60;95.12
66144;SHT31;52947;50.842;6.084;2023-12-20T09:12:36;5.61;95.15
66144;SHT31;52947;50.842;6.084;2023-12-20T09:15:07;5.57;95.23
66144;SHT31;52947;50.842;6.084;2023-12-20T09:17:35;5.61;95.10
66144;SHT31;52947;50.842;6.084;2023-12-20T09:20:03;5.71;95.17
66144;SHT31;52947;50.842;6.084;2023-12-20T09:22:34;5.72;94.81
66144;SHT31;52947;50.842;6.084;2023-12-20T09:25:04;5.62;95.13
66144;SHT31;52947;50.842;6.084;2023-12-20T09:27:32;5.65;95.03
66144;SHT31;52947;50.842;6.084;2023-12-20T09:30:00;5.84;94.89
66144;SHT31;52947;50.842;6.084;2023-12-20T09:32:28;5.81;94.77
66144;SHT31;52947;50.842;6.084;2023-12-20T09:34:57;5.75;94.82
66144;SHT31;52947;50.842;6.084;2023-12-20T09:37:26;5.70;95.00
66144;SHT31;52947;50.842;6.084;2023-12-20T09:39:54;5.85;94.95
66144;SHT31;52947;50.842;6.084;2023-12-20T09:42:32;5.97;94.42
66144;SHT31;52947;50.842;6.084;2023-12-20T09:45:02;5.97;94.72
66144;SHT31;52947;50.842;6.084;2023-12-20T09:47:32;5.92;94.55
66144;SHT31;52947;50.842;6.084;2023-12-20T09:50:01;6.01;94.14
66144;SHT31;52947;50.842;6.084;2023-12-20T09:52:29;6.16;93.87
66144;SHT31;52947;50.842;6.084;2023-12-20T09:54:57;6.15;93.86
66144;SHT31;52947;50.842;6.084;2023-12-20T09:57:27;6.18;93.70
66144;SHT31;52947;50.842;6.084;2023-12-20T09:59:55;6.16;93.76
66144;SHT31;52947;50.842;6.084;2023-12-20T10:02:25;6.19;94.00
66144;SHT31;52947;50.842;6.084;2023-12-20T10:04:54;6.11;94.07
66144;SHT31;52947;50.842;6.084;2023-12-20T10:07:22;6.18;93.82
66144;SHT31;52947;50.842;6.084;2023-12-20T10:09:54;6.19;93.99
66144;SHT31;52947;50.842;6.084;2023-12-20T10:12:22;6.09;94.00
66144;SHT31;52947;50.842;6.084;2023-12-20T10:14:52;6.13;93.84
66144;SHT31;52947;50.842;6.084;2023-12-20T10:17:21;6.19;94.15
66144;SHT31;52947;50.842;6.084;2023-12-20T10:19:49;6.21;93.78
66144;SHT31;52947;50.842;6.084;2023-12-20T10:22:17;6.25;93.53
66144;SHT31;52947;50.842;6.084;2023-12-20T10:24:45;6.23;93.41
66144;SHT31;52947;50.842;6.084;2023-12-20T10:27:14;6.26;93.66
66144;SHT31;52947;50.842;6.084;2023-12-20T10:29:44;6.30;93.47
66144;SHT31;52947;50.842;6.084;2023-12-20T10:32:26;6.16;93.15
66144;SHT31;52947;50.842;6.084;2023-12-20T10:34:55;6.22;93.38
66144;SHT31;52947;50.842;6.084;2023-12-20T10:37:23;6.28;93.51
66144;SHT31;52947;50.842;6.084;2023-12-20T10:39:53;6.30;93.55
66144;SHT31;52947;50.842;6.084;2023-12-20T10:42:26;6.37;93.29
66144;SHT31;52947;50.842;6.084;2023-12-20T10:44:54;6.30;93.78
66144;SHT31;52947;50.842;6.084;2023-12-20T10:47:25;6.28;93.08
66144;SHT31;52947;50.842;6.084;2023-12-20T10:49:54;6.34;93.32
66144;SHT31;52947;50.842;6.084;2023-12-20T10:52:23;6.37;93.55
66144;SHT31;52947;50.842;6.084;2023-12-20T10:54:52;6.29;93.71
66144;SHT31;52947;50.842;6.084;2023-12-20T10:57:21;6.28;93.45
66144;SHT31;52947;50.842;6.084;2023-12-20T10:59:53;6.23;93.73
66144;SHT31;52947;50.842;6.084;2023-12-20T11:02:22;6.23;93.70
66144;SHT31;52947;50.842;6.084;2023-12-20T11:04:55;6.21;94.04
66144;SHT31;52947;50.842;6.084;2023-12-20T11:07:30;6.19;94.09
66144;SHT31;52947;50.842;6.084;2023-12-20T11:10:10;6.19;93.91
66144;SHT31;52947;50.842;6.084;2023-12-20T11:12:46;6.29;94.00
66144;SHT31;52947;50.842;6.084;2023-12-20T11:15:15;6.26;93.76
66144;SHT31;52947;50.842;6.084;2023-12-20T11:17:44;6.32;93.63
66144;SHT31;52947;50.842;6.084;2023-12-20T11:20:22;6.33;93.73
66144;SHT31;52947;50.842;6.084;2023-12-20T11:22:54;6.30;93.60
66144;SHT31;52947;50.842;6.084;2023-12-20T11:25:23;6.34;93.62
66144;SHT31;52947;50.842;6.084;2023-12-20T11:28:08;6.39;93.78
66144;SHT31;52947;50.842;6.084;2023-12-20T11:30:45;6.34;93.75
66144;SHT31;52947;50.842;6.084;2023-12-20T11:33:14;6.42;93.61
66144;SHT31;52947;50.842;6.084;2023-12-20T11:35:46;6.46;93.58
66144;SHT31;52947;50.842;6.084;2023-12-20T11:38:14;6.47;93.47
66144;SHT31;52947;50.842;6.084;2023-12-20T11:40:43;6.54;93.52
66144;SHT31;52947;50.842;6.084;2023-12-20T11:43:11;6.57;93.09
66144;SHT31;52947;50.842;6.084;2023-12-20T11:45:49;6.53;93.31
66144;SHT31;52947;50.842;6.084;2023-12-20T11:48:18;6.58;93.33
66144;SHT31;52947;50.842;6.084;2023-12-20T11:50:48;6.58;93.24
66144;SHT31;52947;50.842;6.084;2023-12-20T11:53:16;6.57;93.28
66144;SHT31;52947;50.842;6.084;2023-12-20T11:55:47;6.60;93.53
66144;SHT31;52947;50.842;6.084;2023-12-20T11:58:15;6.56;93.35
66144;SHT31;52947;50.842;6.084;2023-12-20T12:00:44;6.58;93.57
66144;SHT31;52947;50.842;6.084;2023-12-20T12:03:15;6.60;93.57
66144;SHT31;52947;50.842;6.084;2023-12-20T12:05:43;6.47;93.56
66144;SHT31;52947;50.842;6.084;2023-12-20T12:08:12;6.53;93.81
66144;SHT31;52947;50.842;6.084;2023-12-20T12:10:40;6.52;93.62
66144;SHT31;52947;50.842;6.084;2023-12-20T12:13:08;6.50;93.82
66144;SHT31;52947;50.842;6.084;2023-12-20T12:15:37;6.56;93.72
66144;SHT31;52947;50.842;6.084;2023-12-20T12:18:06;6.66;93.62
66144;SHT31;52947;50.842;6.084;2023-12-20T12:20:35;6.67;93.81
66144;SHT31;52947;50.842;6.084;2023-12-20T12:23:05;6.63;93.63
66144;SHT31;52947;50.842;6.084;2023-12-20T12:25:36;6.64;93.92
66144;SHT31;52947;50.842;6.084;2023-12-20T12:28:08;6.67;93.89
66144;SHT31;52947;50.842;6.084;2023-12-20T12:30:37;6.71;93.60
66144;SHT31;52947;50.842;6.084;2023-12-20T12:33:17;6.74;93.36
66144;SHT31;52947;50.842;6.084;2023-12-20T12:35:45;6.71;93.72
66144;SHT31;52947;50.842;6.084;2023-12-20T12:38:14;6.64;94.30
66144;SHT31;52947;50.842;6.084;2023-12-20T12:40:44;6.60;94.92
66144;SHT31;52947;50.842;6.084;2023-12-20T12:43:12;6.53;95.46
66144;SHT31;52947;50.842;6.084;2023-12-20T12:45:40;6.50;95.55
66144;SHT31;52947;50.842;6.084;2023-12-20T12:48:08;6.44;96.39
66144;SHT31;52947;50.842;6.084;2023-12-20T12:50:37;6.44;96.18
66144;SHT31;52947;50.842;6.084;2023-12-20T12:53:05;6.46;96.25
66144;SHT31;52947;50.842;6.084;2023-12-20T12:55:34;6.44;96.33
66144;SHT31;52947;50.842;6.084;2023-12-20T12:58:04;6.46;96.72
66144;SHT31;52947;50.842;6.084;2023-12-20T13:00:32;6.47;96.66
66144;SHT31;52947;50.842;6.084;2023-12-20T13:03:00;6.54;96.53
66144;SHT31;52947;50.842;6.084;2023-12-20T13:05:29;6.52;96.32
66144;SHT31;52947;50.842;6.084;2023-12-20T13:08:04;6.53;96.75
66144;SHT31;52947;50.842;6.084;2023-12-20T13:10:33;6.49;96.41
66144;SHT31;52947;50.842;6.084;2023-12-20T13:13:01;6.50;96.55
66144;SHT31;52947;50.842;6.084;2023-12-20T13:15:32;6.47;96.75
66144;SHT31;52947;50.842;6.084;2023-12-20T13:18:00;6.50;96.77
66144;SHT31;52947;50.842;6.084;2023-12-20T13:20:30;6.47;96.94
66144;SHT31;52947;50.842;6.084;2023-12-20T13:23:00;6.46;97.05
66144;SHT31;52947;50.842;6.084;2023-12-20T13:25:28;6.43;97.24
66144;SHT31;52947;50.842;6.084;2023-12-20T13:27:56;6.44;97.46
66144;SHT31;52947;50.842;6.084;2023-12-20T13:30:26;6.49;97.73
66144;SHT31;52947;50.842;6.084;2023-12-20T13:32:55;6.47;97.37
66144;SHT31;52947;50.842;6.084;2023-12-20T13:35:23;6.52;97.41
66144;SHT31;52947;50.842;6.084;2023-12-20T13:37:51;6.52;97.55
66144;SHT31;52947;50.842;6.084;2023-12-20T13:40:20;6.60;97.38
66144;SHT31;52947;50.842;6.084;2023-12-20T13:42:48;6.64;97.55
66144;SHT31;52947;50.842;6.084;2023-12-20T13:45:16;6.54;97.46
66144;SHT31;52947;50.842;6.084;2023-12-20T13:47:44;6.62;97.59
66144;SHT31;52947;50.842;6.084;2023-12-20T13:50:14;6.63;97.22
66144;SHT31;52947;50.842;6.084;2023-12-20T13:52:42;6.62;97.33
66144;SHT31;52947;50.842;6.084;2023-12-20T13:55:10;6.57;97.40
66144;SHT31;52947;50.842;6.084;2023-12-20T13:57:38;6.57;97.55
66144;SHT31;52947;50.842;6.084;2023-12-20T14:00:21;6.60;97.53
66144;SHT31;52947;50.842;6.084;2023-12-20T14:02:49;6.73;97.59
66144;SHT31;52947;50.842;6.084;2023-12-20T14:05:18;6.77;97.07
66144;SHT31;52947;50.842;6.084;2023-12-20T14:07:51;6.70;97.09
66144;SHT31;52947;50.842;6.084;2023-12-20T14:10:20;6.74;97.26
66144;SHT31;52947;50.842;6.084;2023-12-20T14:12:48;6.74;97.15
66144;SHT31;52947;50.842;6.084;2023-12-20T14:15:16;6.80;97.07
66144;SHT31;52947;50.842;6.084;2023-12-20T14:17:44;6.81;96.86
66144;SHT31;52947;50.842;6.084;2023-12-20T14:20:12;6.79;97.02
66144;SHT31;52947;50.842;6.084;2023-12-20T14:22:42;6.74;96.92
66144;SHT31;52947;50.842;6.084;2023-12-20T14:25:11;6.73;97.06
66144;SHT31;52947;50.842;6.084;2023-12-20T14:27:40;6.69;97.18
66144;SHT31;52947;50.842;6.084;2023-12-20T14:30:12;6.71;97.37
66144;SHT31;52947;50.842;6.084;2023-12-20T14:32:41;6.73;97.15
66144;SHT31;52947;50.842;6.084;2023-12-20T14:35:09;6.74;96.93
66144;SHT31;52947;50.842;6.084;2023-12-20T14:37:38;6.73;97.07
66144;SHT31;52947;50.842;6.084;2023-12-20T14:40:10;6.80;96.60
66144;SHT31;52947;50.842;6.084;2023-12-20T14:42:42;6.77;96.75
66144;SHT31;52947;50.842;6.084;2023-12-20T14:45:11;6.74;96.98
66144;SHT31;52947;50.842;6.084;2023-12-20T14:47:40;6.81;96.99
66144;SHT31;52947;50.842;6.084;2023-12-20T14:50:09;6.76;97.05
66144;SHT31;52947;50.842;6.084;2023-12-20T14:52:38;6.83;97.08
66144;SHT31;52947;50.842;6.084;2023-12-20T14:55:07;6.81;96.99
66144;SHT31;52947;50.842;6.084;2023-12-20T14:57:36;6.81;97.17
66144;SHT31;52947;50.842;6.084;2023-12-20T15:00:06;6.83;97.38
66144;SHT31;52947;50.842;6.084;2023-12-20T15:02:34;6.84;97.43
66144;SHT31;52947;50.842;6.084;2023-12-20T15:05:02;6.77;97.73
66144;SHT31;52947;50.842;6.084;2023-12-20T15:07:31;6.77;97.78
66144;SHT31;52947;50.842;6.084;2023-12-20T15:09:59;6.73;98.25
66144;SHT31;52947;50.842;6.084;2023-12-20T15:12:27;6.73;98.49
66144;SHT31;52947;50.842;6.084;2023-12-20T15:14:56;6.67;98.59
66144;SHT31;52947;50.842;6.084;2023-12-20T15:17:24;6.71;98.70
66144;SHT31;52947;50.842;6.084;2023-12-20T15:19:53;6.66;98.75
66144;SHT31;52947;50.842;6.084;2023-12-20T15:22:22;6.69;98.80
66144;SHT31;52947;50.842;6.084;2023-12-20T15:24:52;6.71;98.51
66144;SHT31;52947;50.842;6.084;2023-12-20T15:27:21;6.71;98.45
66144;SHT31;52947;50.842;6.084;2023-12-20T15:29:51;6.71;98.36
66144;SHT31;52947;50.842;6.084;2023-12-20T15:32:20;6.74;98.35
66144;SHT31;52947;50.842;6.084;2023-12-20T15:34:49;6.77;98.17
66144;SHT31;52947;50.842;6.084;2023-12-20T15:37:19;6.81;98.20
66144;SHT31;52947;50.842;6.084;2023-12-20T15:39:47;6.81;98.13
66144;SHT31;52947;50.842;6.084;2023-12-20T15:42:15;6.87;97.99
66144;SHT31;52947;50.842;6.084;2023-12-20T15:44:43;6.83;98.01
66144;SHT31;52947;50.842;6.084;2023-12-20T15:47:11;6.87;97.30
66144;SHT31;52947;50.842;6.084;2023-12-20T15:49:40;6.84;97.68
66144;SHT31;52947;50.842;6.084;2023-12-20T15:52:08;6.87;97.68
66144;SHT31;52947;50.842;6.084;2023-12-20T15:54:36;6.91;97.48
66144;SHT31;52947;50.842;6.084;2023-12-20T15:57:06;6.90;97.42